Terminal Aerodrome Forecast
Issued by NWS Charleston, WV

Current Version | Previous Version | Graphics & Text | Print | Product List | Glossary On
Versions: 1 2 3 4 5 6 7 8 9 10 11 12 13 14 15 16 17 18 19 20 21 22 23
000
FTUS41 KRLX 180200 AAA
TAFHTS
TAF AMD
KHTS 180216Z 1802/1824 VRB03KT P6SM SCT050 BKN250
     FM180600 00000KT 4SM BR SCT250
     FM180800 00000KT 2SM BR SCT002
     FM181300 VRB03KT P6SM SCT020
     FM181600 05004KT P6SM SKC=

USA.gov is the U.S. government's official web portal to all federal, state and local government web resources and services.